Time;durP1;ratioP1;P1;durP2;ratioP2;P2;SDS_P1;SDS_P2;PMS_P1;PMS_P2;Temp;Humidity;BMP_temperature;BMP_pressure;BME280_temperature;BME280_humidity;BME280_pressure;Samples;Min_cycle;Max_cycle;Signal;HPM_P1;HPM_P2
2021/08/06 00:01:56;;;;;;;2.50;1.02;;;;;;;;;;4972844;28;20022;-67
2021/08/06 00:04:22;;;;;;;2.88;1.25;;;;;;;;;;4972717;28;20172;-67
2021/08/06 00:06:47;;;;;;;1.50;1.10;;;;;;;;;;4958346;28;20095;-67
2021/08/06 00:09:12;;;;;;;2.55;1.20;;;;;;;;;;4972523;28;20018;-67
2021/08/06 00:11:38;;;;;;;2.50;1.27;;;;;;;;;;4972736;28;20023;-67
2021/08/06 00:14:03;;;;;;;2.20;1.10;;;;;;;;;;4972551;28;20015;-67
2021/08/06 00:16:28;;;;;;;2.95;1.20;;;;;;;;;;4972503;28;20110;-67
2021/08/06 00:18:54;;;;;;;3.15;1.20;;;;;;;;;;4971992;28;20073;-67
2021/08/06 00:21:19;;;;;;;3.58;1.20;;;;;;;;;;4972306;28;20421;-69
2021/08/06 00:23:45;;;;;;;1.80;1.20;;;;;;;;;;4972635;28;20031;-67
2021/08/06 00:26:10;;;;;;;2.40;1.10;;;;;;;;;;4982272;28;20018;-67
2021/08/06 00:28:36;;;;;;;2.00;1.20;;;;;;;;;;4972610;28;20019;-68
2021/08/06 00:31:01;;;;;;;1.93;1.00;;;;;;;;;;4972166;28;20590;-66
2021/08/06 00:33:26;;;;;;;2.08;1.17;;;;;;;;;;4972277;28;20282;-67
2021/08/06 00:35:51;;;;;;;1.30;1.10;;;;;;;;;;4972088;28;20019;-67
2021/08/06 00:38:16;;;;;;;2.57;1.00;;;;;;;;;;4971981;28;20282;-68
2021/08/06 00:40:42;;;;;;;3.25;1.20;;;;;;;;;;4972221;28;20281;-67
2021/08/06 00:43:07;;;;;;;1.73;1.10;;;;;;;;;;4971993;28;20050;-66
2021/08/06 00:45:32;;;;;;;1.50;1.00;;;;;;;;;;4971718;28;20027;-67
2021/08/06 00:47:57;;;;;;;2.47;1.02;;;;;;;;;;4972061;28;20266;-67
2021/08/06 00:50:23;;;;;;;1.65;1.10;;;;;;;;;;4971789;28;20015;-67
2021/08/06 00:52:48;;;;;;;1.90;1.07;;;;;;;;;;4971575;28;20023;-67
2021/08/06 00:55:13;;;;;;;1.83;1.10;;;;;;;;;;4971636;28;20566;-67
2021/08/06 00:57:39;;;;;;;2.65;1.40;;;;;;;;;;4971548;28;20034;-67
2021/08/06 01:00:05;;;;;;;2.67;1.13;;;;;;;;;;4971273;28;20114;-67
2021/08/06 01:02:46;;;;;;;1.38;0.90;;;;;;;;;;4971604;28;20068;-67
2021/08/06 01:05:14;;;;;;;2.83;1.20;;;;;;;;;;4971137;28;20023;-67
2021/08/06 01:07:51;;;;;;;1.90;1.08;;;;;;;;;;4971460;28;20058;-67
2021/08/06 01:10:19;;;;;;;1.98;1.10;;;;;;;;;;4971240;28;20026;-67
2021/08/06 01:12:52;;;;;;;2.33;1.00;;;;;;;;;;4971298;28;20026;-67
2021/08/06 01:15:18;;;;;;;2.25;1.05;;;;;;;;;;4971145;28;20031;-66
2021/08/06 01:17:44;;;;;;;2.70;1.10;;;;;;;;;;4970989;28;20097;-67
2021/08/06 01:20:12;;;;;;;2.08;1.05;;;;;;;;;;4971201;28;20030;-67
2021/08/06 01:22:40;;;;;;;4.07;1.20;;;;;;;;;;4971401;28;20316;-67
2021/08/06 01:25:06;;;;;;;1.48;1.10;;;;;;;;;;4972942;28;20054;-67
2021/08/06 01:27:32;;;;;;;1.77;1.10;;;;;;;;;;4973321;28;20050;-66
2021/08/06 01:29:57;;;;;;;2.15;1.27;;;;;;;;;;4970792;28;20038;-66
2021/08/06 01:32:27;;;;;;;1.33;1.08;;;;;;;;;;4970953;28;20019;-67
2021/08/06 01:34:52;;;;;;;3.15;1.10;;;;;;;;;;4970983;28;20030;-67
2021/08/06 01:37:17;;;;;;;1.83;1.10;;;;;;;;;;4970754;28;20390;-67
2021/08/06 01:39:42;;;;;;;2.23;1.20;;;;;;;;;;4970961;28;20023;-67
2021/08/06 01:42:18;;;;;;;1.70;1.20;;;;;;;;;;4970505;28;20267;-67
2021/08/06 01:44:48;;;;;;;1.83;1.00;;;;;;;;;;4970473;28;20278;-67
2021/08/06 01:47:16;;;;;;;1.88;1.15;;;;;;;;;;4970557;28;20134;-67
2021/08/06 01:49:42;;;;;;;3.75;1.10;;;;;;;;;;4970569;28;20082;-67
2021/08/06 01:52:12;;;;;;;1.83;1.15;;;;;;;;;;4970431;28;20097;-67
2021/08/06 01:54:37;;;;;;;1.98;1.30;;;;;;;;;;4970215;28;20027;-67
2021/08/06 01:57:03;;;;;;;2.25;1.08;;;;;;;;;;4970412;28;20030;-66
2021/08/06 01:59:29;;;;;;;2.53;1.02;;;;;;;;;;4970382;28;20367;-67
2021/08/06 02:01:55;;;;;;;1.70;1.13;;;;;;;;;;4970627;28;20023;-66
2021/08/06 02:04:22;;;;;;;1.52;1.00;;;;;;;;;;4970348;28;20027;-67
2021/08/06 02:06:47;;;;;;;1.25;1.00;;;;;;;;;;4970327;28;20077;-66
2021/08/06 02:09:16;;;;;;;2.05;1.15;;;;;;;;;;4970486;28;20023;-67
2021/08/06 02:11:41;;;;;;;1.48;0.98;;;;;;;;;;4970289;28;20050;-66
2021/08/06 02:14:07;;;;;;;2.90;1.20;;;;;;;;;;4970227;28;20027;-66
2021/08/06 02:16:32;;;;;;;1.85;1.10;;;;;;;;;;4970476;28;20042;-68
2021/08/06 02:18:58;;;;;;;1.90;1.30;;;;;;;;;;4970223;28;20094;-66
2021/08/06 02:21:30;;;;;;;1.60;1.10;;;;;;;;;;4970276;28;20026;-67
2021/08/06 02:23:57;;;;;;;1.95;1.20;;;;;;;;;;4969984;28;20023;-67
2021/08/06 02:26:23;;;;;;;1.35;1.10;;;;;;;;;;4974803;28;20022;-67
2021/08/06 02:28:50;;;;;;;1.95;1.30;;;;;;;;;;4970400;28;20378;-67
2021/08/06 02:31:15;;;;;;;2.42;1.10;;;;;;;;;;4970019;28;20113;-67
2021/08/06 02:33:41;;;;;;;2.30;1.10;;;;;;;;;;4970424;28;20109;-67
2021/08/06 02:36:06;;;;;;;4.38;1.33;;;;;;;;;;4970260;28;20104;-67
2021/08/06 02:38:34;;;;;;;2.25;0.90;;;;;;;;;;4970053;28;20443;-66
2021/08/06 02:40:59;;;;;;;2.90;1.23;;;;;;;;;;4963852;28;20110;-67
2021/08/06 02:43:24;;;;;;;3.80;1.60;;;;;;;;;;4969809;28;20069;-67
2021/08/06 02:45:49;;;;;;;2.85;1.30;;;;;;;;;;4969903;28;20023;-66
2021/08/06 02:48:15;;;;;;;3.33;1.60;;;;;;;;;;4969922;28;20470;-66
2021/08/06 02:50:40;;;;;;;3.05;1.60;;;;;;;;;;4969671;28;20029;-67
2021/08/06 02:53:05;;;;;;;2.40;1.42;;;;;;;;;;4969875;28;20478;-67
2021/08/06 02:55:30;;;;;;;2.40;1.60;;;;;;;;;;4971221;28;20090;-67
2021/08/06 02:57:55;;;;;;;3.15;1.63;;;;;;;;;;4969728;28;20294;-67
2021/08/06 03:00:21;;;;;;;2.90;1.40;;;;;;;;;;4969765;28;20023;-66
2021/08/06 03:02:46;;;;;;;2.60;1.80;;;;;;;;;;4972675;28;20634;-67
2021/08/06 03:05:11;;;;;;;2.72;1.70;;;;;;;;;;4973807;28;20029;-67
2021/08/06 03:07:36;;;;;;;2.97;1.33;;;;;;;;;;4973514;28;20269;-67
2021/08/06 03:10:03;;;;;;;2.35;1.20;;;;;;;;;;4973488;28;20022;-66
2021/08/06 03:12:28;;;;;;;2.53;1.42;;;;;;;;;;4973274;28;20073;-66
2021/08/06 03:14:53;;;;;;;3.05;1.20;;;;;;;;;;4973739;28;20058;-67
2021/08/06 03:17:18;;;;;;;3.37;1.10;;;;;;;;;;4973368;28;20777;-67
2021/08/06 03:19:44;;;;;;;2.07;1.00;;;;;;;;;;4973581;28;20266;-67
2021/08/06 03:22:09;;;;;;;1.90;1.10;;;;;;;;;;4973134;28;20262;-67
2021/08/06 03:24:34;;;;;;;2.65;1.30;;;;;;;;;;4973550;28;20069;-66
2021/08/06 03:26:59;;;;;;;3.03;1.02;;;;;;;;;;4978284;28;20023;-67
2021/08/06 03:29:25;;;;;;;1.42;0.90;;;;;;;;;;4973483;28;20386;-68
2021/08/06 03:31:50;;;;;;;2.40;1.08;;;;;;;;;;4973242;28;20019;-66
2021/08/06 03:34:15;;;;;;;2.30;1.13;;;;;;;;;;4973330;28;20382;-67
2021/08/06 03:36:40;;;;;;;2.95;1.30;;;;;;;;;;4973160;28;20030;-66
2021/08/06 03:39:06;;;;;;;2.78;1.48;;;;;;;;;;4973126;28;20035;-66
2021/08/06 03:41:31;;;;;;;3.03;1.42;;;;;;;;;;4973192;28;20023;-68
2021/08/06 03:43:56;;;;;;;2.78;1.23;;;;;;;;;;4972891;28;20403;-67
2021/08/06 03:46:22;;;;;;;1.75;1.20;;;;;;;;;;4972918;28;20030;-67
2021/08/06 03:48:47;;;;;;;1.40;0.93;;;;;;;;;;4973191;28;20035;-66
2021/08/06 03:51:12;;;;;;;1.55;1.08;;;;;;;;;;4971206;28;20490;-67
2021/08/06 03:53:37;;;;;;;3.22;0.93;;;;;;;;;;4973125;28;20031;-67
2021/08/06 03:56:03;;;;;;;2.83;1.00;;;;;;;;;;4972673;28;20027;-67
2021/08/06 03:58:28;;;;;;;1.30;1.00;;;;;;;;;;4973087;28;20298;-67
2021/08/06 04:00:53;;;;;;;1.75;1.17;;;;;;;;;;4987139;28;20446;-67
2021/08/06 04:03:18;;;;;;;1.85;1.00;;;;;;;;;;4972785;28;20085;-67
2021/08/06 04:05:43;;;;;;;1.63;1.00;;;;;;;;;;4972894;28;20110;-67
2021/08/06 04:08:09;;;;;;;4.43;1.50;;;;;;;;;;4972432;28;20113;-66
2021/08/06 04:10:34;;;;;;;3.30;1.40;;;;;;;;;;4972613;28;20273;-67
2021/08/06 04:13:00;;;;;;;1.77;1.00;;;;;;;;;;4971857;28;20538;-67
2021/08/06 04:15:25;;;;;;;2.55;1.02;;;;;;;;;;4972640;28;20069;-68
2021/08/06 04:17:50;;;;;;;6.63;1.13;;;;;;;;;;4972507;28;20053;-67
2021/08/06 04:20:15;;;;;;;1.85;1.17;;;;;;;;;;4972466;28;20038;-67
2021/08/06 04:22:41;;;;;;;1.13;1.02;;;;;;;;;;4972241;28;20134;-68
2021/08/06 04:25:07;;;;;;;1.27;0.82;;;;;;;;;;4974290;28;20090;-67
2021/08/06 04:27:32;;;;;;;1.83;1.10;;;;;;;;;;4975126;28;20126;-67
2021/08/06 04:29:57;;;;;;;1.65;0.95;;;;;;;;;;4972209;28;20041;-67
2021/08/06 04:32:22;;;;;;;1.33;0.93;;;;;;;;;;4972173;28;20785;-67
2021/08/06 04:34:48;;;;;;;1.92;1.10;;;;;;;;;;4972038;28;20348;-67
2021/08/06 04:37:13;;;;;;;1.85;1.15;;;;;;;;;;4971671;28;20015;-68
2021/08/06 04:39:38;;;;;;;1.85;1.20;;;;;;;;;;4972030;28;20043;-67
2021/08/06 04:42:03;;;;;;;1.73;1.10;;;;;;;;;;4971644;28;20023;-68
2021/08/06 04:44:34;;;;;;;4.45;1.30;;;;;;;;;;4971777;28;20298;-67
2021/08/06 04:46:59;;;;;;;1.77;1.20;;;;;;;;;;4971833;28;20034;-67
2021/08/06 04:49:24;;;;;;;2.10;1.33;;;;;;;;;;4971674;28;20018;-69
2021/08/06 04:51:49;;;;;;;1.67;1.00;;;;;;;;;;4971866;28;20277;-68
2021/08/06 04:54:15;;;;;;;3.80;1.43;;;;;;;;;;4971694;28;20618;-68
2021/08/06 04:56:40;;;;;;;2.60;1.27;;;;;;;;;;4973877;28;20258;-67
2021/08/06 04:59:05;;;;;;;2.15;1.10;;;;;;;;;;4971060;28;20049;-67
2021/08/06 05:01:31;;;;;;;3.00;1.20;;;;;;;;;;4971848;28;20026;-68
2021/08/06 05:03:56;;;;;;;1.90;1.10;;;;;;;;;;4971326;28;20262;-67
2021/08/06 05:06:22;;;;;;;2.30;1.13;;;;;;;;;;4970346;28;20041;-67
2021/08/06 05:08:49;;;;;;;2.22;1.00;;;;;;;;;;4971047;28;20390;-67
2021/08/06 05:11:14;;;;;;;4.47;1.20;;;;;;;;;;4969689;28;20089;-67
2021/08/06 05:13:39;;;;;;;1.50;1.00;;;;;;;;;;4971100;28;20038;-68
2021/08/06 05:16:04;;;;;;;2.30;1.08;;;;;;;;;;4971299;28;20021;-67
2021/08/06 05:18:29;;;;;;;2.17;1.00;;;;;;;;;;4971342;28;20043;-68
2021/08/06 05:20:55;;;;;;;2.00;1.02;;;;;;;;;;4970920;28;20480;-68
2021/08/06 05:23:20;;;;;;;3.00;1.55;;;;;;;;;;4971144;28;20082;-67
2021/08/06 05:25:45;;;;;;;1.88;1.15;;;;;;;;;;4970533;28;20030;-67
2021/08/06 05:28:10;;;;;;;2.30;1.13;;;;;;;;;;4970702;28;20463;-67
2021/08/06 05:30:35;;;;;;;2.63;1.35;;;;;;;;;;4970963;28;20062;-66
2021/08/06 05:33:00;;;;;;;2.88;1.48;;;;;;;;;;4970572;28;20027;-68
2021/08/06 05:35:26;;;;;;;3.05;1.30;;;;;;;;;;4970741;28;20906;-68
2021/08/06 05:37:51;;;;;;;4.32;1.50;;;;;;;;;;4970441;28;20030;-68
2021/08/06 05:40:16;;;;;;;2.00;1.20;;;;;;;;;;4970512;28;20023;-68
2021/08/06 05:42:41;;;;;;;3.47;1.60;;;;;;;;;;4970403;28;20292;-67
2021/08/06 05:45:07;;;;;;;2.50;1.55;;;;;;;;;;4970152;28;20039;-66
2021/08/06 05:47:46;;;;;;;3.70;1.60;;;;;;;;;;4970795;28;20110;-68
2021/08/06 05:50:11;;;;;;;2.72;1.30;;;;;;;;;;4985344;28;20027;-67
2021/08/06 05:52:37;;;;;;;3.47;1.52;;;;;;;;;;4970741;28;20078;-67
2021/08/06 05:55:02;;;;;;;2.97;1.60;;;;;;;;;;4970352;28;20101;-67
2021/08/06 05:57:28;;;;;;;7.85;1.88;;;;;;;;;;4970172;28;20293;-67
2021/08/06 05:59:53;;;;;;;2.30;1.40;;;;;;;;;;4970297;28;20029;-67
2021/08/06 06:02:18;;;;;;;4.57;1.70;;;;;;;;;;4970239;28;20418;-67
2021/08/06 06:04:43;;;;;;;4.68;1.75;;;;;;;;;;4970510;28;20312;-68
2021/08/06 06:07:08;;;;;;;5.32;1.58;;;;;;;;;;4970249;28;20022;-67
2021/08/06 06:09:33;;;;;;;4.20;1.50;;;;;;;;;;4969949;28;20058;-68
2021/08/06 06:11:59;;;;;;;3.90;1.50;;;;;;;;;;4970195;28;20035;-68
2021/08/06 06:14:24;;;;;;;2.95;1.67;;;;;;;;;;4970152;28;20431;-68
2021/08/06 06:16:49;;;;;;;2.53;1.60;;;;;;;;;;4970115;28;20023;-68
2021/08/06 06:19:16;;;;;;;4.83;1.70;;;;;;;;;;4969876;28;20729;-68
2021/08/06 06:21:41;;;;;;;5.68;2.10;;;;;;;;;;4970332;28;20265;-67
2021/08/06 06:24:06;;;;;;;3.13;1.70;;;;;;;;;;4970080;28;20027;-67
2021/08/06 06:26:31;;;;;;;3.07;1.80;;;;;;;;;;4976388;28;20019;-66
2021/08/06 06:28:57;;;;;;;2.45;1.55;;;;;;;;;;4969724;28;20825;-67
2021/08/06 06:31:22;;;;;;;4.00;1.67;;;;;;;;;;4978252;28;20019;-67
2021/08/06 06:33:47;;;;;;;6.28;1.73;;;;;;;;;;4969914;28;20385;-69
2021/08/06 06:36:13;;;;;;;2.83;1.63;;;;;;;;;;4968852;28;20015;-66
2021/08/06 06:38:38;;;;;;;4.43;1.67;;;;;;;;;;4970065;28;20348;-67
2021/08/06 06:41:03;;;;;;;3.73;1.40;;;;;;;;;;4969993;28;20071;-67
2021/08/06 06:43:28;;;;;;;4.13;1.58;;;;;;;;;;4969631;28;20274;-67
2021/08/06 06:45:53;;;;;;;3.15;1.20;;;;;;;;;;4969903;28;20553;-67
2021/08/06 06:48:18;;;;;;;2.60;1.58;;;;;;;;;;4969667;28;20023;-67
2021/08/06 06:50:44;;;;;;;2.00;1.37;;;;;;;;;;4970055;28;20022;-67
2021/08/06 06:53:09;;;;;;;2.83;1.40;;;;;;;;;;4969900;28;20759;-67
2021/08/06 06:55:34;;;;;;;2.90;1.20;;;;;;;;;;4970203;28;20310;-67
2021/08/06 06:57:59;;;;;;;2.20;1.33;;;;;;;;;;4970115;28;20847;-67
2021/08/06 07:00:34;;;;;;;3.37;1.40;;;;;;;;;;4970310;28;20023;-67
2021/08/06 07:03:00;;;;;;;3.22;1.20;;;;;;;;;;4969919;28;20266;-67
2021/08/06 07:05:25;;;;;;;1.65;1.10;;;;;;;;;;4970411;28;20041;-66
2021/08/06 07:07:50;;;;;;;3.47;1.50;;;;;;;;;;4970252;28;20574;-67
2021/08/06 07:10:15;;;;;;;4.25;1.48;;;;;;;;;;4970673;28;20031;-68
2021/08/06 07:12:41;;;;;;;3.70;1.20;;;;;;;;;;4970149;28;20042;-67
2021/08/06 07:15:07;;;;;;;1.77;1.20;;;;;;;;;;4970333;28;20019;-67
2021/08/06 07:17:33;;;;;;;2.50;1.13;;;;;;;;;;4969901;28;20073;-66
2021/08/06 07:19:58;;;;;;;2.88;1.70;;;;;;;;;;4969831;28;20063;-67
2021/08/06 07:22:24;;;;;;;2.47;1.45;;;;;;;;;;4969782;28;20038;-67
2021/08/06 07:24:49;;;;;;;1.98;1.40;;;;;;;;;;4968874;28;20036;-68
2021/08/06 07:27:14;;;;;;;2.88;1.25;;;;;;;;;;4969753;28;20034;-67
2021/08/06 07:29:39;;;;;;;3.87;1.57;;;;;;;;;;4970087;28;20467;-67
2021/08/06 07:32:04;;;;;;;3.75;1.60;;;;;;;;;;4969535;28;20357;-67
2021/08/06 07:34:30;;;;;;;5.82;1.60;;;;;;;;;;4969837;28;20077;-67
2021/08/06 07:36:55;;;;;;;3.50;1.70;;;;;;;;;;4969358;28;20069;-67
2021/08/06 07:39:20;;;;;;;4.88;1.50;;;;;;;;;;4970104;28;20789;-68
2021/08/06 07:41:45;;;;;;;2.67;1.58;;;;;;;;;;4969509;28;20125;-67
2021/08/06 07:44:11;;;;;;;2.85;1.50;;;;;;;;;;4969555;28;20051;-68
2021/08/06 07:46:36;;;;;;;2.53;1.58;;;;;;;;;;4969592;28;20031;-68
2021/08/06 07:49:01;;;;;;;4.22;1.48;;;;;;;;;;4972667;28;20046;-68
2021/08/06 07:51:26;;;;;;;2.65;1.65;;;;;;;;;;4972966;28;20366;-67
2021/08/06 07:53:51;;;;;;;3.45;1.60;;;;;;;;;;4972981;28;20490;-69
2021/08/06 07:56:17;;;;;;;2.17;1.35;;;;;;;;;;4976169;28;20078;-67
2021/08/06 07:58:42;;;;;;;3.90;2.20;;;;;;;;;;4972773;28;20031;-67
2021/08/06 08:01:07;;;;;;;3.42;1.73;;;;;;;;;;4972983;28;20038;-68
2021/08/06 08:03:32;;;;;;;4.45;1.80;;;;;;;;;;4973005;28;20034;-67
2021/08/06 08:05:59;;;;;;;4.50;1.73;;;;;;;;;;4972613;28;20025;-68
2021/08/06 08:08:25;;;;;;;4.28;2.03;;;;;;;;;;4966658;28;20353;-68
2021/08/06 08:10:50;;;;;;;2.57;1.70;;;;;;;;;;4972798;28;20111;-68
2021/08/06 08:13:16;;;;;;;3.10;1.63;;;;;;;;;;4972474;28;20277;-68
2021/08/06 08:15:41;;;;;;;2.95;1.70;;;;;;;;;;4972843;28;20293;-68
2021/08/06 08:18:06;;;;;;;6.15;1.92;;;;;;;;;;4972240;28;20541;-70
2021/08/06 08:20:32;;;;;;;3.63;1.55;;;;;;;;;;4972808;28;20030;-69
2021/08/06 08:22:57;;;;;;;2.60;1.80;;;;;;;;;;4972310;28;20057;-67
2021/08/06 08:25:22;;;;;;;3.17;1.50;;;;;;;;;;4973125;28;20074;-68
2021/08/06 08:27:47;;;;;;;2.05;1.40;;;;;;;;;;4972470;28;20410;-66
2021/08/06 08:30:12;;;;;;;2.92;1.60;;;;;;;;;;4972898;28;20050;-67
2021/08/06 08:32:38;;;;;;;3.05;1.40;;;;;;;;;;4972303;28;20034;-68
2021/08/06 08:35:04;;;;;;;4.25;1.63;;;;;;;;;;4972543;28;20018;-67
2021/08/06 08:37:29;;;;;;;2.45;1.58;;;;;;;;;;4971850;28;20183;-68
2021/08/06 08:39:54;;;;;;;3.38;1.70;;;;;;;;;;4972222;28;20025;-67
2021/08/06 08:42:21;;;;;;;2.30;1.75;;;;;;;;;;4971695;28;20011;-67
2021/08/06 08:44:46;;;;;;;2.42;1.52;;;;;;;;;;4972243;28;20045;-68
2021/08/06 08:47:13;;;;;;;1.70;1.27;;;;;;;;;;4971856;28;20019;-69
2021/08/06 08:49:39;;;;;;;5.70;1.60;;;;;;;;;;4971979;28;20614;-67
2021/08/06 08:52:04;;;;;;;2.47;1.40;;;;;;;;;;4971737;28;20018;-68
2021/08/06 08:54:29;;;;;;;2.95;1.25;;;;;;;;;;4971955;28;20109;-67
2021/08/06 08:56:55;;;;;;;1.90;1.13;;;;;;;;;;4971602;28;20053;-67
2021/08/06 08:59:20;;;;;;;2.55;1.30;;;;;;;;;;4970250;28;20347;-67
2021/08/06 09:01:45;;;;;;;3.15;1.30;;;;;;;;;;4971694;28;20061;-67
2021/08/06 09:04:22;;;;;;;3.25;1.40;;;;;;;;;;4971578;28;20031;-66
2021/08/06 09:06:48;;;;;;;2.08;1.20;;;;;;;;;;4971670;28;20019;-67
2021/08/06 09:09:17;;;;;;;1.13;0.88;;;;;;;;;;4971059;28;20042;-67
2021/08/06 09:11:42;;;;;;;1.63;1.08;;;;;;;;;;4971720;28;20037;-67
2021/08/06 09:14:16;;;;;;;2.30;1.17;;;;;;;;;;4971301;28;20131;-67
2021/08/06 09:16:56;;;;;;;3.35;1.30;;;;;;;;;;4971675;28;20414;-67
2021/08/06 09:19:21;;;;;;;2.45;1.13;;;;;;;;;;4971339;28;20042;-67
2021/08/06 09:21:46;;;;;;;2.53;1.23;;;;;;;;;;4971078;28;20026;-67
2021/08/06 09:24:11;;;;;;;1.33;1.10;;;;;;;;;;4986009;28;20289;-67
2021/08/06 09:26:40;;;;;;;1.77;1.00;;;;;;;;;;4971728;28;20027;-67
2021/08/06 09:29:07;;;;;;;3.13;1.42;;;;;;;;;;4971194;28;20301;-66
2021/08/06 09:31:34;;;;;;;1.67;0.88;;;;;;;;;;4971240;28;20027;-66
2021/08/06 09:34:12;;;;;;;2.10;1.20;;;;;;;;;;4970790;28;20067;-66
2021/08/06 09:36:38;;;;;;;1.73;1.20;;;;;;;;;;4965920;28;20053;-67
2021/08/06 09:39:13;;;;;;;1.60;1.10;;;;;;;;;;4970827;28;20054;-67
2021/08/06 09:41:39;;;;;;;2.05;1.20;;;;;;;;;;4970673;28;20069;-68
2021/08/06 09:44:12;;;;;;;4.95;1.55;;;;;;;;;;4970862;28;20098;-67
2021/08/06 09:46:37;;;;;;;1.48;1.02;;;;;;;;;;4971015;28;20050;-68
2021/08/06 09:49:06;;;;;;;2.13;1.10;;;;;;;;;;4970991;28;20026;-67
2021/08/06 09:51:31;;;;;;;1.50;1.17;;;;;;;;;;4971417;28;20308;-67
2021/08/06 09:53:57;;;;;;;2.27;1.30;;;;;;;;;;4970521;28;20482;-67
2021/08/06 09:56:22;;;;;;;2.40;1.30;;;;;;;;;;4975281;28;20749;-67
2021/08/06 09:58:56;;;;;;;2.53;1.40;;;;;;;;;;4970859;28;20034;-67
2021/08/06 10:01:22;;;;;;;2.22;1.15;;;;;;;;;;4970741;28;20266;-67
2021/08/06 10:03:47;;;;;;;2.72;1.30;;;;;;;;;;4970772;28;20026;-66
2021/08/06 10:06:16;;;;;;;3.03;1.03;;;;;;;;;;4970531;28;20046;-67
2021/08/06 10:08:42;;;;;;;1.45;0.98;;;;;;;;;;4968887;28;20361;-67
2021/08/06 10:11:08;;;;;;;3.08;1.38;;;;;;;;;;4970092;28;20186;-67
2021/08/06 10:13:33;;;;;;;2.40;1.50;;;;;;;;;;4970263;28;20093;-67
2021/08/06 10:15:58;;;;;;;1.95;1.17;;;;;;;;;;4970562;28;20022;-66
2021/08/06 10:18:24;;;;;;;2.25;1.10;;;;;;;;;;4970314;28;20040;-66
2021/08/06 10:20:50;;;;;;;3.50;1.30;;;;;;;;;;4970465;28;20478;-67
2021/08/06 10:23:15;;;;;;;2.35;1.40;;;;;;;;;;4970311;28;20026;-67
2021/08/06 10:25:41;;;;;;;2.55;1.25;;;;;;;;;;4970282;28;20077;-68
2021/08/06 10:28:06;;;;;;;2.75;1.30;;;;;;;;;;4970433;28;20027;-66
2021/08/06 10:30:32;;;;;;;3.33;1.13;;;;;;;;;;4970098;28;20435;-66
2021/08/06 10:33:06;;;;;;;3.40;1.25;;;;;;;;;;4970490;28;20025;-66
2021/08/06 10:35:40;;;;;;;2.85;1.25;;;;;;;;;;4970321;28;20105;-67
2021/08/06 10:38:05;;;;;;;2.80;1.15;;;;;;;;;;4970387;28;20034;-65
2021/08/06 10:40:34;;;;;;;5.30;1.50;;;;;;;;;;4968882;28;20090;-67
2021/08/06 10:42:59;;;;;;;1.98;1.10;;;;;;;;;;4969756;28;20062;-67
2021/08/06 10:45:43;;;;;;;3.30;1.40;;;;;;;;;;4969956;28;20126;-66
2021/08/06 10:48:08;;;;;;;2.28;1.00;;;;;;;;;;4964399;28;20029;-67
2021/08/06 10:50:34;;;;;;;4.25;1.00;;;;;;;;;;4970133;28;20027;-68
2021/08/06 10:53:28;;;;;;;4.27;1.60;;;;;;;;;;4968724;28;20494;-67
2021/08/06 10:56:17;;;;;;;2.15;1.20;;;;;;;;;;4966734;28;20274;-66
2021/08/06 10:58:53;;;;;;;4.00;1.45;;;;;;;;;;4928240;29;20048;-67
2021/08/06 11:03:54;;;;;;;1.58;0.85;;;;;;;;;;4928564;29;20055;-67
2021/08/06 11:06:35;;;;;;;3.33;1.23;;;;;;;;;;4928598;29;20047;-67
2021/08/06 11:09:01;;;;;;;3.45;1.10;;;;;;;;;;4928566;29;20511;-67
2021/08/06 11:11:46;;;;;;;2.47;1.10;;;;;;;;;;4928489;29;20055;-66
2021/08/06 11:14:15;;;;;;;2.63;1.00;;;;;;;;;;4918456;29;20035;-66
2021/08/06 11:17:01;;;;;;;4.75;1.10;;;;;;;;;;4928396;29;20095;-66
2021/08/06 11:19:27;;;;;;;9.45;1.60;;;;;;;;;;4928518;29;20047;-67
2021/08/06 11:21:52;;;;;;;2.25;1.10;;;;;;;;;;4928729;29;20035;-66
2021/08/06 11:24:18;;;;;;;4.13;1.38;;;;;;;;;;4931847;29;20032;-67
2021/08/06 11:26:47;;;;;;;2.05;1.15;;;;;;;;;;4929723;29;20031;-66
2021/08/06 11:29:13;;;;;;;2.67;1.13;;;;;;;;;;4932259;29;20032;-67
2021/08/06 11:31:38;;;;;;;2.10;1.00;;;;;;;;;;4932319;29;20051;-67
2021/08/06 11:34:04;;;;;;;9.88;1.35;;;;;;;;;;4919956;29;20551;-66
2021/08/06 11:36:30;;;;;;;2.65;1.20;;;;;;;;;;4959305;28;20743;-67
2021/08/06 11:39:01;;;;;;;3.85;1.42;;;;;;;;;;4973096;28;20041;-67
2021/08/06 11:41:26;;;;;;;2.95;1.30;;;;;;;;;;4973569;28;20022;-67
2021/08/06 11:43:52;;;;;;;2.20;1.02;;;;;;;;;;4973066;28;20062;-67
2021/08/06 11:46:17;;;;;;;2.28;1.20;;;;;;;;;;4973299;28;20026;-66
2021/08/06 11:48:50;;;;;;;2.37;1.20;;;;;;;;;;4981571;28;20034;-66
2021/08/06 11:51:17;;;;;;;2.35;1.00;;;;;;;;;;4972651;28;20314;-67
2021/08/06 11:53:42;;;;;;;3.10;1.30;;;;;;;;;;4972682;28;20477;-67
2021/08/06 11:56:12;;;;;;;2.13;1.10;;;;;;;;;;4972405;28;20101;-67
2021/08/06 11:58:38;;;;;;;1.48;0.90;;;;;;;;;;4972909;28;20030;-66
2021/08/06 12:01:04;;;;;;;2.50;1.30;;;;;;;;;;4972914;28;20077;-66
2021/08/06 12:03:30;;;;;;;2.80;1.20;;;;;;;;;;4973075;28;20037;-66
2021/08/06 12:06:01;;;;;;;3.28;1.42;;;;;;;;;;4979097;28;20057;-66
2021/08/06 12:08:31;;;;;;;4.35;1.38;;;;;;;;;;4972684;28;20027;-67
2021/08/06 12:11:06;;;;;;;2.92;1.25;;;;;;;;;;4972275;28;20489;-67
2021/08/06 12:13:32;;;;;;;2.95;1.35;;;;;;;;;;4972463;28;20054;-67
2021/08/06 12:16:01;;;;;;;1.95;1.20;;;;;;;;;;4972630;28;20031;-66
2021/08/06 12:18:27;;;;;;;2.45;1.10;;;;;;;;;;4972830;28;20038;-66
2021/08/06 12:20:54;;;;;;;3.50;1.27;;;;;;;;;;4972373;28;20106;-66
2021/08/06 12:23:19;;;;;;;3.53;1.20;;;;;;;;;;4972467;28;20045;-67
2021/08/06 12:26:01;;;;;;;2.08;1.00;;;;;;;;;;4972112;28;20023;-66
2021/08/06 12:28:26;;;;;;;2.85;1.17;;;;;;;;;;4972204;28;20026;-67
2021/08/06 12:31:05;;;;;;;4.22;1.33;;;;;;;;;;4972124;28;20029;-67
2021/08/06 12:33:30;;;;;;;2.55;1.10;;;;;;;;;;4967451;28;20030;-66
2021/08/06 12:36:06;;;;;;;3.03;1.20;;;;;;;;;;4971798;28;20097;-66
2021/08/06 12:38:32;;;;;;;2.78;1.20;;;;;;;;;;4972000;28;20689;-67
2021/08/06 12:40:59;;;;;;;3.30;1.67;;;;;;;;;;4972428;28;20164;-66
2021/08/06 12:43:24;;;;;;;3.05;1.27;;;;;;;;;;4972197;28;20293;-66
2021/08/06 12:46:08;;;;;;;2.43;1.07;;;;;;;;;;4972385;28;20031;-67
2021/08/06 12:48:33;;;;;;;3.85;1.30;;;;;;;;;;4972825;28;20255;-66
2021/08/06 12:51:15;;;;;;;2.10;1.20;;;;;;;;;;4971762;28;20035;-67
2021/08/06 12:53:40;;;;;;;2.90;1.08;;;;;;;;;;4972222;28;20385;-67
2021/08/06 12:56:05;;;;;;;2.20;1.50;;;;;;;;;;4977372;28;20038;-66
2021/08/06 12:58:31;;;;;;;2.17;1.20;;;;;;;;;;4972088;28;20290;-68
2021/08/06 13:00:58;;;;;;;5.00;1.10;;;;;;;;;;4971677;28;20164;-68
2021/08/06 13:03:23;;;;;;;3.60;1.23;;;;;;;;;;4972362;28;20266;-67
2021/08/06 13:05:48;;;;;;;3.55;1.40;;;;;;;;;;4972075;28;20034;-67
2021/08/06 13:08:34;;;;;;;3.65;0.93;;;;;;;;;;4971818;28;20035;-66
2021/08/06 13:11:02;;;;;;;5.03;1.70;;;;;;;;;;4970665;28;20117;-66
2021/08/06 13:13:28;;;;;;;2.53;1.20;;;;;;;;;;4971393;28;20779;-68
2021/08/06 13:15:53;;;;;;;1.77;1.13;;;;;;;;;;4971347;28;20037;-67
2021/08/06 13:18:18;;;;;;;3.80;1.30;;;;;;;;;;4971113;28;20375;-66
2021/08/06 13:20:44;;;;;;;4.13;1.30;;;;;;;;;;4971497;28;20011;-66
2021/08/06 13:23:10;;;;;;;3.03;1.27;;;;;;;;;;4971188;28;20019;-67
2021/08/06 13:25:35;;;;;;;4.50;1.17;;;;;;;;;;4971371;28;20370;-66
2021/08/06 13:28:00;;;;;;;4.40;1.20;;;;;;;;;;4970988;28;20062;-67
2021/08/06 13:30:26;;;;;;;2.25;0.90;;;;;;;;;;4971138;28;20029;-68
2021/08/06 13:32:51;;;;;;;3.83;1.10;;;;;;;;;;4970889;28;20026;-68
2021/08/06 13:35:16;;;;;;;4.73;1.20;;;;;;;;;;4970829;28;20396;-67
2021/08/06 13:37:41;;;;;;;3.83;1.30;;;;;;;;;;4971028;28;20377;-66
2021/08/06 13:40:07;;;;;;;1.60;1.03;;;;;;;;;;4971039;28;20274;-70
2021/08/06 13:42:32;;;;;;;3.42;1.30;;;;;;;;;;4970596;28;20274;-67
2021/08/06 13:44:57;;;;;;;3.42;1.17;;;;;;;;;;4970699;28;20536;-67
2021/08/06 13:47:23;;;;;;;3.33;1.20;;;;;;;;;;4970965;28;20041;-66
2021/08/06 13:49:49;;;;;;;3.33;1.30;;;;;;;;;;4964812;28;20262;-66
2021/08/06 13:52:14;;;;;;;2.72;1.40;;;;;;;;;;4970778;28;20026;-66
2021/08/06 13:54:39;;;;;;;3.77;1.60;;;;;;;;;;4970592;28;20027;-66
2021/08/06 13:57:04;;;;;;;3.67;1.30;;;;;;;;;;4970365;28;20254;-66
2021/08/06 13:59:30;;;;;;;2.22;1.08;;;;;;;;;;4970509;28;20306;-66
2021/08/06 14:01:55;;;;;;;4.37;1.10;;;;;;;;;;4970991;28;20031;-65
2021/08/06 14:04:20;;;;;;;4.03;1.50;;;;;;;;;;4970551;28;20344;-67
2021/08/06 14:06:45;;;;;;;3.65;1.17;;;;;;;;;;4971089;28;20262;-67
2021/08/06 14:09:10;;;;;;;3.30;1.20;;;;;;;;;;4970329;28;20030;-66
2021/08/06 14:11:36;;;;;;;2.40;1.30;;;;;;;;;;4970529;28;20098;-67
2021/08/06 14:14:01;;;;;;;2.83;1.23;;;;;;;;;;4970117;28;20266;-67
2021/08/06 14:16:26;;;;;;;3.60;1.50;;;;;;;;;;4985235;28;20077;-67
2021/08/06 14:18:53;;;;;;;2.55;1.08;;;;;;;;;;4970330;28;20037;-67
2021/08/06 14:21:19;;;;;;;1.85;1.15;;;;;;;;;;4970210;28;20019;-67
2021/08/06 14:23:44;;;;;;;3.90;1.30;;;;;;;;;;4969752;28;20042;-66
2021/08/06 14:26:09;;;;;;;3.40;1.33;;;;;;;;;;4973271;28;20043;-66
2021/08/06 14:28:34;;;;;;;2.10;1.10;;;;;;;;;;4970111;28;20034;-66
2021/08/06 14:31:00;;;;;;;3.63;1.50;;;;;;;;;;4970298;28;20046;-66
2021/08/06 14:33:25;;;;;;;2.25;1.08;;;;;;;;;;4984764;28;20034;-67
2021/08/06 14:35:51;;;;;;;2.88;1.20;;;;;;;;;;4970088;28;20019;-66
2021/08/06 14:38:16;;;;;;;6.38;0.98;;;;;;;;;;4969783;28;20157;-66
2021/08/06 14:40:41;;;;;;;2.95;1.25;;;;;;;;;;4969742;28;20102;-66
2021/08/06 14:43:06;;;;;;;1.97;1.30;;;;;;;;;;4969588;28;20515;-66